Time;durP1;ratioP1;P1;durP2;ratioP2;P2;SDS_P1;SDS_P2;PMS_P1;PMS_P2;Temp;Humidity;BMP_temperature;BMP_pressure;BME280_temperature;BME280_humidity;BME280_pressure;Samples;Min_cycle;Max_cycle;Signal;HPM_P1;HPM_P2
2023/07/26 00:00:13;;;;;;;1.08;0.70;;;;;;;16.18;51.53;91712.00;5041579;28;20033;-82
2023/07/26 00:02:41;;;;;;;1.02;0.70;;;;;;;16.13;56.76;91714.91;5054093;28;20048;-83
2023/07/26 00:05:07;;;;;;;0.80;0.70;;;;;;;15.99;59.73;91702.88;5057063;28;20081;-83
2023/07/26 00:07:33;;;;;;;2.25;0.70;;;;;;;15.90;60.51;91715.47;5044875;28;20111;-83
2023/07/26 00:09:58;;;;;;;1.27;0.77;;;;;;;15.81;62.45;91709.56;5048089;28;20383;-83
2023/07/26 00:12:26;;;;;;;1.00;0.65;;;;;;;15.72;62.27;91708.94;5053555;28;20025;-83
2023/07/26 00:14:52;;;;;;;0.85;0.63;;;;;;;15.69;58.88;91712.97;5043707;28;20064;-84
2023/07/26 00:17:18;;;;;;;1.73;0.90;;;;;;;15.74;54.81;91712.03;5046325;28;20067;-83
2023/07/26 00:19:44;;;;;;;1.35;0.90;;;;;;;15.72;55.01;91715.00;5053237;28;20028;-83
2023/07/26 00:22:10;;;;;;;1.38;0.80;;;;;;;15.92;52.61;91717.75;5049080;28;20037;-84
2023/07/26 00:24:35;;;;;;;1.33;0.65;;;;;;;15.87;51.72;91713.47;5042969;28;20033;-83
2023/07/26 00:27:01;;;;;;;0.90;0.70;;;;;;;15.83;50.32;91715.28;5043858;28;20032;-83
2023/07/26 00:29:26;;;;;;;1.15;0.90;;;;;;;15.84;51.88;91716.81;5045972;28;20336;-83
2023/07/26 00:31:52;;;;;;;1.63;0.65;;;;;;;15.86;52.52;91717.25;5028929;28;20037;-83
2023/07/26 00:34:18;;;;;;;0.80;0.60;;;;;;;15.87;51.28;91718.75;5040884;28;20025;-83
2023/07/26 00:36:43;;;;;;;1.52;1.00;;;;;;;15.85;51.71;91721.00;5051236;28;20093;-83
2023/07/26 00:39:09;;;;;;;5.85;0.90;;;;;;;15.82;53.13;91719.00;5039400;28;20044;-83
2023/07/26 00:41:35;;;;;;;1.13;0.73;;;;;;;15.79;51.88;91720.44;5039421;28;20100;-83
2023/07/26 00:44:01;;;;;;;0.80;0.63;;;;;;;15.75;51.60;91724.09;5044309;28;20045;-83
2023/07/26 00:46:27;;;;;;;1.40;0.73;;;;;;;15.69;51.50;91718.25;5041201;28;20033;-84
2023/07/26 00:48:53;;;;;;;2.78;0.82;;;;;;;15.73;51.06;91716.50;5046283;28;20032;-84
2023/07/26 00:51:20;;;;;;;1.38;0.80;;;;;;;15.70;52.85;91708.50;5034611;28;20092;-83
2023/07/26 00:53:46;;;;;;;0.85;0.57;;;;;;;15.67;51.61;91711.78;5051073;28;20522;-84
2023/07/26 00:56:12;;;;;;;0.73;0.60;;;;;;;15.71;50.80;91708.16;4992856;28;20060;-83
2023/07/26 00:58:39;;;;;;;1.45;0.80;;;;;;;15.73;55.41;91710.47;5049750;28;21229;-83
2023/07/26 01:01:05;;;;;;;1.40;0.70;;;;;;;15.65;51.88;91720.06;5047472;28;20041;-83
2023/07/26 01:03:31;;;;;;;1.73;0.90;;;;;;;15.60;50.35;91723.69;5054941;28;20044;-83
2023/07/26 01:06:04;;;;;;;1.25;0.77;;;;;;;15.70;48.09;91732.22;5045669;28;20072;-84
2023/07/26 01:08:38;;;;;;;0.85;0.70;;;;;;;15.80;49.14;91729.88;5040633;28;20029;-83
2023/07/26 01:11:29;;;;;;;0.60;0.60;;;;;;;15.73;48.84;91742.91;5039890;28;20119;-83
2023/07/26 01:13:58;;;;;;;1.15;0.60;;;;;;;15.67;49.75;91740.81;5039413;28;20029;-83
2023/07/26 01:16:23;;;;;;;1.08;0.60;;;;;;;15.58;52.89;91752.28;5038096;28;20105;-82
2023/07/26 01:18:49;;;;;;;0.77;0.60;;;;;;;15.49;54.40;91746.38;5044671;28;20130;-82
2023/07/26 01:21:15;;;;;;;1.98;0.80;;;;;;;15.37;56.91;91749.03;5020073;28;20041;-84
2023/07/26 01:23:40;;;;;;;4.53;0.80;;;;;;;15.27;55.67;91741.59;5050337;28;20029;-82
2023/07/26 01:26:06;;;;;;;4.68;0.63;;;;;;;15.13;56.07;91747.97;5045475;28;20029;-83
2023/07/26 01:28:32;;;;;;;1.45;0.70;;;;;;;15.09;54.68;91741.81;5033401;28;20036;-83
2023/07/26 01:31:01;;;;;;;0.80;0.70;;;;;;;15.07;53.40;91738.75;5035202;28;20124;-84
2023/07/26 01:33:29;;;;;;;1.52;0.80;;;;;;;15.07;54.42;91740.63;5039181;28;20044;-84
2023/07/26 01:35:56;;;;;;;0.80;0.70;;;;;;;15.23;48.90;91740.72;5040609;28;20045;-83
2023/07/26 01:38:23;;;;;;;1.50;0.82;;;;;;;15.17;51.41;91738.28;5044482;28;20040;-83
2023/07/26 01:40:49;;;;;;;1.13;0.68;;;;;;;15.18;51.93;91746.97;5038035;28;20033;-84
2023/07/26 01:43:15;;;;;;;0.57;0.57;;;;;;;15.18;52.09;91757.53;5028676;28;20030;-84
2023/07/26 01:45:41;;;;;;;1.27;0.70;;;;;;;15.14;52.55;91764.56;5044414;28;20053;-83
2023/07/26 01:48:07;;;;;;;1.60;0.75;;;;;;;15.12;51.66;91761.47;5024417;28;20712;-83
2023/07/26 01:50:32;;;;;;;2.70;0.90;;;;;;;15.20;51.87;91764.00;5044463;28;20444;-83
2023/07/26 01:52:58;;;;;;;1.10;0.65;;;;;;;15.47;47.54;91771.50;5052931;28;20029;-83
2023/07/26 01:55:23;;;;;;;0.70;0.70;;;;;;;15.35;49.25;91778.34;5038840;28;20084;-83
2023/07/26 01:57:49;;;;;;;0.70;0.60;;;;;;;15.34;48.79;91778.69;5040336;28;20041;-83
2023/07/26 02:00:16;;;;;;;1.35;0.70;;;;;;;15.26;50.01;91788.25;5036370;28;20049;-83
2023/07/26 02:02:41;;;;;;;0.75;0.60;;;;;;;15.20;50.80;91793.00;5046337;28;20098;-83
2023/07/26 02:05:07;;;;;;;0.40;0.40;;;;;;;15.13;53.31;91787.50;5024089;28;20033;-84
2023/07/26 02:07:33;;;;;;;0.50;0.50;;;;;;;15.10;52.06;91784.75;5039692;28;20045;-83
2023/07/26 02:09:59;;;;;;;1.08;0.70;;;;;;;15.06;53.07;91795.19;5051294;28;20605;-83
2023/07/26 02:12:24;;;;;;;0.70;0.70;;;;;;;15.01;52.18;91803.31;5043708;28;20036;-83
2023/07/26 02:14:50;;;;;;;2.30;0.73;;;;;;;15.04;52.67;91807.16;5054472;28;20063;-83
2023/07/26 02:17:16;;;;;;;0.60;0.60;;;;;;;15.01;52.73;91811.22;5049534;28;20511;-83
2023/07/26 02:19:41;;;;;;;2.20;0.70;;;;;;;15.02;51.93;91814.63;5048403;28;20047;-83
2023/07/26 02:22:07;;;;;;;1.65;0.93;;;;;;;14.99;52.27;91816.03;5023369;28;20049;-83
2023/07/26 02:24:34;;;;;;;1.33;0.70;;;;;;;15.06;50.34;91816.25;5038170;28;20152;-84
2023/07/26 02:27:01;;;;;;;0.85;0.63;;;;;;;15.04;50.45;91823.75;5039743;28;20112;-84
2023/07/26 02:29:26;;;;;;;1.08;0.70;;;;;;;15.01;51.07;91829.66;5049308;28;20064;-83
2023/07/26 02:31:52;;;;;;;2.95;0.60;;;;;;;15.01;51.23;91831.53;5040619;28;20032;-84
2023/07/26 02:34:18;;;;;;;0.60;0.60;;;;;;;15.13;48.28;91834.97;5043035;28;20037;-83
2023/07/26 02:36:43;;;;;;;0.85;0.60;;;;;;;15.16;47.92;91836.94;5005690;28;20061;-83
2023/07/26 02:39:09;;;;;;;1.60;0.90;;;;;;;15.13;48.48;91842.88;5024866;28;20057;-83
2023/07/26 02:41:36;;;;;;;4.53;0.77;;;;;;;15.19;48.74;91844.16;5053736;28;20033;-83
2023/07/26 02:44:03;;;;;;;0.98;0.70;;;;;;;15.13;49.91;91840.22;5051594;28;20052;-83
2023/07/26 02:46:28;;;;;;;0.70;0.70;;;;;;;15.07;48.92;91848.69;5050754;28;20029;-83
2023/07/26 02:48:54;;;;;;;0.93;0.70;;;;;;;15.05;48.55;91856.91;5033251;28;20038;-83
2023/07/26 02:51:20;;;;;;;2.40;0.50;;;;;;;15.04;48.81;91858.03;5048767;28;20127;-83
2023/07/26 02:53:45;;;;;;;0.57;0.57;;;;;;;15.05;47.97;91861.41;5039202;28;20064;-83
2023/07/26 02:56:11;;;;;;;0.68;0.68;;;;;;;15.02;48.83;91857.56;5047381;28;20096;-83
2023/07/26 02:58:36;;;;;;;1.60;0.63;;;;;;;15.02;48.29;91867.31;5054169;28;20059;-84
2023/07/26 03:01:02;;;;;;;2.17;0.80;;;;;;;15.10;47.95;91863.84;5051574;28;20041;-83
2023/07/26 03:03:28;;;;;;;1.35;0.77;;;;;;;15.06;47.88;91865.59;5038512;28;20048;-83
2023/07/26 03:05:57;;;;;;;1.23;0.70;;;;;;;14.98;48.38;91867.22;5037763;28;20071;-83
2023/07/26 03:08:22;;;;;;;1.30;0.75;;;;;;;14.95;48.26;91867.88;5048963;28;20390;-84
2023/07/26 03:10:51;;;;;;;1.48;0.70;;;;;;;14.90;49.42;91866.22;5040505;28;20029;-84
2023/07/26 03:13:17;;;;;;;0.93;0.70;;;;;;;14.88;48.83;91878.19;5042692;28;20036;-84
2023/07/26 03:15:42;;;;;;;0.68;0.68;;;;;;;14.84;48.04;91877.28;5048394;28;20029;-83
2023/07/26 03:18:08;;;;;;;1.67;0.75;;;;;;;14.80;47.02;91879.81;5055300;28;20037;-84
2023/07/26 03:20:33;;;;;;;0.75;0.65;;;;;;;14.85;47.66;91878.84;5047708;28;20037;-84
2023/07/26 03:22:59;;;;;;;1.45;0.90;;;;;;;14.73;48.58;91883.00;5038885;28;20485;-83
2023/07/26 03:25:25;;;;;;;1.05;0.73;;;;;;;14.68;49.52;91885.84;5029347;28;20034;-83
2023/07/26 03:27:50;;;;;;;0.82;0.68;;;;;;;14.64;49.29;91889.47;5042827;28;20113;-83
2023/07/26 03:30:16;;;;;;;1.45;0.80;;;;;;;14.59;49.32;91895.69;5032533;28;20064;-83
2023/07/26 03:32:41;;;;;;;1.20;0.80;;;;;;;14.52;51.09;91898.03;5041451;28;20035;-84
2023/07/26 03:35:07;;;;;;;2.00;0.80;;;;;;;14.47;51.86;91898.25;5052046;28;20032;-83
2023/07/26 03:37:33;;;;;;;0.77;0.63;;;;;;;14.44;50.21;91888.38;5046277;28;20056;-83
2023/07/26 03:39:58;;;;;;;2.70;0.90;;;;;;;14.40;49.77;91901.41;5049860;28;20033;-84
2023/07/26 03:42:24;;;;;;;2.55;0.90;;;;;;;14.35;51.45;91893.72;5054146;28;20029;-83
2023/07/26 03:44:50;;;;;;;1.70;1.02;;;;;;;14.35;49.50;91909.50;5042423;28;20045;-83
2023/07/26 03:47:15;;;;;;;0.88;0.70;;;;;;;14.36;48.38;91906.56;5039390;28;20025;-83
2023/07/26 03:49:41;;;;;;;1.33;0.82;;;;;;;14.34;49.95;91908.75;5045875;28;20029;-84
2023/07/26 03:52:07;;;;;;;6.22;0.90;;;;;;;14.40;48.29;91900.63;5054791;28;20049;-84
2023/07/26 03:54:33;;;;;;;0.98;0.70;;;;;;;14.36;48.66;91911.81;5039243;28;20030;-83
2023/07/26 03:56:59;;;;;;;2.17;1.00;;;;;;;14.30;49.15;91913.09;5053685;28;20102;-83
2023/07/26 03:59:25;;;;;;;1.20;0.80;;;;;;;14.29;50.32;91924.72;5043525;28;20454;-83
2023/07/26 04:01:50;;;;;;;2.38;0.75;;;;;;;14.31;50.86;91919.13;5037466;28;20060;-84
2023/07/26 04:04:16;;;;;;;3.05;0.80;;;;;;;14.24;53.39;91927.53;5044814;28;20033;-83
2023/07/26 04:06:41;;;;;;;2.05;1.00;;;;;;;14.11;55.85;91936.47;5042619;28;20079;-83
2023/07/26 04:09:07;;;;;;;1.70;1.00;;;;;;;14.08;54.24;91932.63;5039391;28;20112;-83
2023/07/26 04:11:33;;;;;;;1.60;0.80;;;;;;;14.17;49.43;91940.47;5037732;28;20064;-83
2023/07/26 04:13:58;;;;;;;2.15;1.20;;;;;;;14.21;49.29;91943.19;5050653;28;20079;-83
2023/07/26 04:16:24;;;;;;;3.58;1.00;;;;;;;14.18;50.84;91952.50;5042109;28;20029;-82
2023/07/26 04:18:50;;;;;;;2.15;1.20;;;;;;;14.15;51.49;91948.66;5047607;28;20668;-84
2023/07/26 04:21:17;;;;;;;1.58;1.13;;;;;;;14.15;51.80;91958.44;5042062;28;20062;-83
2023/07/26 04:23:44;;;;;;;2.38;1.10;;;;;;;14.13;52.36;91960.59;5046431;28;20033;-82
2023/07/26 04:26:10;;;;;;;2.85;1.10;;;;;;;14.19;50.46;91958.56;5044621;28;20051;-82
2023/07/26 04:28:36;;;;;;;1.80;1.02;;;;;;;14.16;51.10;91959.97;5043296;28;20037;-82
2023/07/26 04:31:02;;;;;;;2.08;1.00;;;;;;;14.20;50.56;91966.13;5049910;28;20418;-83
2023/07/26 04:33:28;;;;;;;3.88;1.15;;;;;;;14.25;50.88;91965.97;5041860;28;20220;-87
2023/07/26 04:35:54;;;;;;;2.45;1.20;;;;;;;14.60;46.94;91972.84;5027999;28;20557;-87
2023/07/26 04:38:20;;;;;;;2.22;1.10;;;;;;;14.66;47.12;91966.25;5038982;28;20297;-83
2023/07/26 04:40:47;;;;;;;2.90;1.20;;;;;;;14.72;47.54;91965.75;5035828;28;20033;-83
2023/07/26 04:43:19;;;;;;;2.22;1.20;;;;;;;14.69;47.87;91966.41;5037825;28;20094;-83
2023/07/26 04:45:46;;;;;;;2.53;1.33;;;;;;;14.73;48.63;91972.56;5038406;28;20052;-83
2023/07/26 04:48:11;;;;;;;2.55;1.33;;;;;;;14.71;47.55;91974.75;5040066;28;20037;-83
2023/07/26 04:50:39;;;;;;;2.67;1.20;;;;;;;14.70;48.79;91973.22;5037857;28;20438;-82
2023/07/26 04:53:05;;;;;;;2.92;1.30;;;;;;;14.76;48.94;91985.09;5037231;28;20051;-83
2023/07/26 04:55:31;;;;;;;3.40;1.10;;;;;;;14.75;48.16;91980.91;5047049;28;20037;-83
2023/07/26 04:57:57;;;;;;;2.88;1.42;;;;;;;14.77;48.37;91977.94;5052447;28;20063;-82
2023/07/26 05:00:23;;;;;;;2.13;1.20;;;;;;;14.72;49.76;91971.00;5051623;28;20409;-83
2023/07/26 05:02:49;;;;;;;2.97;1.40;;;;;;;14.75;49.72;91985.44;5051195;28;20122;-82
2023/07/26 05:05:14;;;;;;;2.35;1.25;;;;;;;14.80;49.56;91987.09;5050948;28;20115;-83
2023/07/26 05:07:40;;;;;;;3.42;1.52;;;;;;;14.83;49.42;91984.56;5040467;28;20041;-83
2023/07/26 05:10:06;;;;;;;2.00;1.10;;;;;;;14.85;50.51;91995.53;5040980;28;20037;-82
2023/07/26 05:12:31;;;;;;;3.30;1.40;;;;;;;14.93;50.25;91996.59;5025424;28;20080;-82
2023/07/26 05:14:57;;;;;;;2.55;1.30;;;;;;;14.95;50.96;91999.63;5043567;28;20037;-83
2023/07/26 05:17:23;;;;;;;2.95;1.40;;;;;;;15.04;49.69;92005.63;5049924;28;20037;-83
2023/07/26 05:19:48;;;;;;;5.78;1.50;;;;;;;15.08;48.95;92003.84;5038694;28;20033;-83
2023/07/26 05:22:14;;;;;;;2.97;1.40;;;;;;;15.12;51.46;92007.38;5045008;28;20060;-83
2023/07/26 05:24:39;;;;;;;2.47;1.30;;;;;;;15.18;50.63;92010.59;5038645;28;20045;-83
2023/07/26 05:27:05;;;;;;;3.00;1.42;;;;;;;15.20;51.87;92011.06;5040880;28;20034;-83
2023/07/26 05:29:31;;;;;;;4.07;1.60;;;;;;;15.23;50.88;92014.91;5036902;28;20076;-83
2023/07/26 05:31:56;;;;;;;4.65;1.55;;;;;;;15.33;52.22;92011.81;5047535;28;20111;-83
2023/07/26 05:34:22;;;;;;;3.65;1.42;;;;;;;15.39;50.80;92019.22;5038344;28;20048;-83
2023/07/26 05:36:47;;;;;;;5.60;1.38;;;;;;;15.47;50.98;92019.44;5038705;28;20041;-82
2023/07/26 05:39:13;;;;;;;4.03;1.50;;;;;;;15.53;51.48;92018.91;5041610;28;20025;-83
2023/07/26 05:41:38;;;;;;;5.47;1.55;;;;;;;15.55;52.91;92016.72;5038094;28;20096;-83
2023/07/26 05:44:04;;;;;;;3.67;1.60;;;;;;;15.63;53.35;92025.63;5052855;28;20466;-83
2023/07/26 05:46:30;;;;;;;2.47;1.30;;;;;;;15.71;54.49;92031.94;5056580;28;20032;-83
2023/07/26 05:48:55;;;;;;;4.22;1.33;;;;;;;15.76;53.05;92021.94;5056030;28;20491;-82
2023/07/26 05:51:21;;;;;;;3.10;1.30;;;;;;;15.87;52.82;92035.47;5022057;28;20047;-82
2023/07/26 05:53:46;;;;;;;4.13;1.58;;;;;;;15.94;54.38;92032.28;5056458;28;20033;-83
2023/07/26 05:56:14;;;;;;;4.53;1.50;;;;;;;16.03;53.91;92025.81;5052828;28;20033;-83
2023/07/26 05:58:39;;;;;;;3.65;1.55;;;;;;;16.10;52.37;92030.53;5075304;28;20041;-83
2023/07/26 06:01:05;;;;;;;3.53;1.60;;;;;;;16.27;54.27;92034.78;5047984;28;20433;-83
2023/07/26 06:03:33;;;;;;;3.22;1.35;;;;;;;16.96;55.57;92034.91;5057075;28;20048;-84
2023/07/26 06:06:00;;;;;;;4.45;1.60;;;;;;;17.92;53.81;92038.50;5059498;28;20041;-83
2023/07/26 06:08:25;;;;;;;2.67;1.40;;;;;;;18.84;52.18;92041.69;5065638;28;20024;-84
2023/07/26 06:10:51;;;;;;;5.28;1.40;;;;;;;19.66;48.43;92048.56;5072098;28;20044;-84
2023/07/26 06:13:16;;;;;;;2.58;1.40;;;;;;;20.31;46.09;92053.06;5073789;28;20047;-84
2023/07/26 06:15:42;;;;;;;3.38;1.80;;;;;;;20.99;45.55;92043.41;5061991;28;20039;-84
2023/07/26 06:18:08;;;;;;;4.60;1.48;;;;;;;21.50;41.54;92047.41;5023055;28;20410;-84
2023/07/26 06:20:34;;;;;;;3.10;1.55;;;;;;;21.95;40.42;92055.47;5044659;28;20036;-84
2023/07/26 06:23:00;;;;;;;5.25;1.50;;;;;;;22.38;39.30;92059.28;5060332;28;20029;-85
2023/07/26 06:25:25;;;;;;;2.83;1.38;;;;;;;22.79;38.87;92061.09;5023797;28;20448;-85
2023/07/26 06:27:51;;;;;;;3.65;1.65;;;;;;;23.24;38.50;92061.72;5030294;28;20033;-85
2023/07/26 06:30:17;;;;;;;4.65;1.60;;;;;;;23.61;38.14;92060.69;5047963;28;20037;-85
2023/07/26 06:32:42;;;;;;;3.85;1.80;;;;;;;23.98;37.78;92057.75;5046535;28;20418;-85
2023/07/26 06:35:11;;;;;;;5.45;1.70;;;;;;;24.38;37.07;92063.88;5054753;28;20114;-85
2023/07/26 06:37:36;;;;;;;5.00;1.65;;;;;;;24.51;34.68;92073.09;5064446;28;20190;-85
2023/07/26 06:40:03;;;;;;;2.65;1.55;;;;;;;24.47;32.92;92071.53;5054922;28;20083;-85
2023/07/26 06:42:29;;;;;;;3.42;1.80;;;;;;;23.89;35.12;92076.09;5064893;28;20593;-85
2023/07/26 06:44:54;;;;;;;3.88;1.67;;;;;;;23.77;36.61;92074.50;5058781;28;20037;-84
2023/07/26 06:47:20;;;;;;;4.35;1.50;;;;;;;23.34;34.93;92077.00;5010586;28;20048;-85
2023/07/26 06:49:46;;;;;;;3.03;1.42;;;;;;;23.38;31.17;92074.38;5055317;28;20033;-84
2023/07/26 06:52:11;;;;;;;5.38;1.58;;;;;;;22.32;35.32;92068.00;5063697;28;20044;-85
2023/07/26 06:54:37;;;;;;;7.75;1.92;;;;;;;21.75;39.61;92077.00;5057070;28;20036;-86
2023/07/26 06:57:03;;;;;;;2.80;1.35;;;;;;;21.80;37.89;92071.31;5065587;28;20029;-86
2023/07/26 06:59:29;;;;;;;7.25;1.80;;;;;;;22.15;40.83;92077.34;5050837;28;20114;-85
2023/07/26 07:01:54;;;;;;;4.07;1.50;;;;;;;22.41;38.44;92076.44;5067690;28;20028;-85
2023/07/26 07:04:20;;;;;;;3.65;1.52;;;;;;;22.40;37.29;92072.25;5059217;28;20445;-85
2023/07/26 07:06:46;;;;;;;7.10;1.63;;;;;;;22.14;34.76;92075.81;5059289;28;20551;-85
2023/07/26 07:09:12;;;;;;;3.83;1.40;;;;;;;21.71;35.23;92076.19;5064985;28;20470;-85
2023/07/26 07:11:37;;;;;;;4.03;1.73;;;;;;;21.91;40.68;92074.09;5052148;28;20033;-84
2023/07/26 07:14:04;;;;;;;3.38;1.60;;;;;;;22.09;37.97;92076.13;5053769;28;20460;-88
2023/07/26 07:16:30;;;;;;;4.63;1.70;;;;;;;21.99;38.83;92070.34;5049141;28;20096;-85
2023/07/26 07:18:56;;;;;;;4.28;1.98;;;;;;;22.11;36.65;92082.66;5055911;28;20029;-86
2023/07/26 07:21:21;;;;;;;3.47;1.50;;;;;;;21.89;37.16;92079.03;5008454;28;20548;-86
2023/07/26 07:23:47;;;;;;;3.65;1.60;;;;;;;21.80;34.77;92079.31;5059503;28;20137;-81
2023/07/26 07:26:13;;;;;;;3.33;1.60;;;;;;;21.71;32.96;92086.84;5022643;28;20407;-87
2023/07/26 07:28:39;;;;;;;3.10;1.63;;;;;;;21.68;36.37;92092.88;5025203;28;20512;-87
2023/07/26 07:31:06;;;;;;;3.55;1.60;;;;;;;21.81;38.70;92083.50;5056006;28;20088;-87
2023/07/26 07:33:32;;;;;;;3.28;1.60;;;;;;;21.19;36.83;92088.50;5034060;28;20166;-86
2023/07/26 07:35:57;;;;;;;5.15;1.90;;;;;;;21.45;37.16;92094.91;5043650;28;20041;-85
2023/07/26 07:38:23;;;;;;;4.35;1.70;;;;;;;21.44;35.08;92098.72;5044317;28;20091;-87
2023/07/26 07:40:49;;;;;;;3.63;1.65;;;;;;;20.95;34.24;92093.13;5044505;28;20475;-85
2023/07/26 07:43:15;;;;;;;4.25;1.70;;;;;;;21.34;36.38;92097.41;5037864;28;20078;-87
2023/07/26 07:45:42;;;;;;;4.85;1.90;;;;;;;21.71;37.74;92092.16;5046254;28;20045;-86
2023/07/26 07:48:08;;;;;;;5.53;2.58;;;;;;;21.49;32.60;92091.16;5045809;28;20032;-85
2023/07/26 07:50:34;;;;;;;5.45;1.70;;;;;;;21.51;34.45;92096.88;5034657;28;20095;-85
2023/07/26 07:52:59;;;;;;;4.65;1.73;;;;;;;21.29;36.49;92098.50;5067883;28;20048;-86
2023/07/26 07:55:25;;;;;;;4.88;1.70;;;;;;;20.99;34.59;92095.84;5033062;28;20040;-85
2023/07/26 07:57:51;;;;;;;3.45;1.60;;;;;;;21.05;35.42;92098.94;5030964;28;20046;-86
2023/07/26 08:00:17;;;;;;;3.58;1.65;;;;;;;21.36;36.95;92101.25;5056075;28;20041;-86
2023/07/26 08:02:43;;;;;;;4.22;1.80;;;;;;;21.68;37.59;92108.84;5031608;28;20048;-86
2023/07/26 08:05:10;;;;;;;4.28;1.80;;;;;;;21.67;34.69;92101.25;5046122;28;20529;-86
2023/07/26 08:07:36;;;;;;;5.55;1.73;;;;;;;21.96;37.21;92110.31;5066305;28;20035;-86
2023/07/26 08:10:02;;;;;;;4.53;1.75;;;;;;;22.16;36.55;92108.22;5060133;28;20063;-86
2023/07/26 08:12:27;;;;;;;3.35;1.63;;;;;;;22.36;38.96;92116.75;5055615;28;20040;-85
2023/07/26 08:14:53;;;;;;;4.65;1.50;;;;;;;21.74;33.99;92109.31;5057570;28;20029;-86
2023/07/26 08:17:18;;;;;;;2.78;1.58;;;;;;;21.95;37.18;92120.19;5047474;28;20662;-85
2023/07/26 08:19:46;;;;;;;3.05;1.55;;;;;;;21.50;34.81;92115.88;5058214;28;20085;-85
2023/07/26 08:22:11;;;;;;;3.72;1.60;;;;;;;21.39;34.39;92124.50;5050691;28;20036;-84
2023/07/26 08:24:37;;;;;;;3.33;1.40;;;;;;;21.32;35.39;92118.31;5053363;28;20048;-85
2023/07/26 08:27:05;;;;;;;3.35;1.60;;;;;;;21.38;37.25;92104.31;5053338;28;20382;-85
2023/07/26 08:29:31;;;;;;;4.68;1.67;;;;;;;21.48;38.99;92121.59;5060020;28;20617;-85
2023/07/26 08:31:57;;;;;;;3.92;1.67;;;;;;;21.22;36.05;92106.41;5046381;28;20148;-85
2023/07/26 08:34:22;;;;;;;3.63;1.52;;;;;;;21.05;38.55;92125.56;5037676;28;20044;-84
2023/07/26 08:36:48;;;;;;;4.28;1.65;;;;;;;20.94;39.64;92120.09;5046099;28;20067;-84
2023/07/26 08:39:14;;;;;;;4.07;1.70;;;;;;;21.41;37.02;92119.59;5045639;28;20041;-86
2023/07/26 08:41:40;;;;;;;3.67;1.48;;;;;;;21.63;36.42;92117.19;5058327;28;20041;-84
2023/07/26 08:44:08;;;;;;;3.25;1.55;;;;;;;21.94;35.70;92120.56;5048321;28;20064;-84
2023/07/26 08:46:37;;;;;;;3.25;1.60;;;;;;;22.12;35.58;92126.81;5046737;28;20128;-82
2023/07/26 08:49:05;;;;;;;3.55;1.63;;;;;;;22.06;36.43;92130.94;5044202;28;20041;-85
2023/07/26 08:51:31;;;;;;;3.22;1.58;;;;;;;22.28;37.99;92123.19;5042968;28;20429;-83
2023/07/26 08:53:57;;;;;;;3.85;1.58;;;;;;;21.87;35.95;92136.47;5050889;28;20036;-84
2023/07/26 08:56:25;;;;;;;3.35;1.70;;;;;;;21.15;34.48;92141.66;5053764;28;20025;-83
2023/07/26 08:58:51;;;;;;;2.67;1.40;;;;;;;21.11;38.29;92129.44;5053698;28;20449;-85
2023/07/26 09:01:17;;;;;;;3.35;1.55;;;;;;;21.26;37.84;92130.41;5050386;28;20025;-84
2023/07/26 09:03:43;;;;;;;4.72;1.63;;;;;;;21.67;36.59;92133.97;5050913;28;20044;-83
2023/07/26 09:06:08;;;;;;;3.92;1.80;;;;;;;21.55;35.96;92123.56;5043341;28;20028;-85
2023/07/26 09:08:35;;;;;;;2.80;1.30;;;;;;;21.75;37.83;92119.59;5045745;28;20384;-84
2023/07/26 09:11:03;;;;;;;4.00;1.70;;;;;;;21.42;38.79;92133.69;5049743;28;20090;-83
2023/07/26 09:13:29;;;;;;;4.00;1.60;;;;;;;21.56;37.16;92130.41;5042504;28;20049;-84
2023/07/26 09:15:55;;;;;;;3.17;1.50;;;;;;;21.58;36.92;92128.91;5050168;28;20032;-84
2023/07/26 09:18:20;;;;;;;4.10;1.48;;;;;;;21.29;34.94;92138.44;5048310;28;20457;-83
2023/07/26 09:20:46;;;;;;;3.33;1.65;;;;;;;21.42;36.46;92137.09;5047047;28;20032;-85
2023/07/26 09:23:13;;;;;;;3.65;1.77;;;;;;;21.64;36.74;92124.06;5050814;28;20531;-84
2023/07/26 09:25:41;;;;;;;3.10;1.48;;;;;;;21.97;35.96;92141.13;5049942;28;20054;-85
2023/07/26 09:28:09;;;;;;;4.57;1.40;;;;;;;21.49;36.63;92133.75;5059512;28;20088;-84
2023/07/26 09:30:36;;;;;;;3.05;1.50;;;;;;;21.12;33.70;92136.28;5054032;28;20028;-84
2023/07/26 09:33:03;;;;;;;4.10;1.55;;;;;;;21.34;37.10;92132.78;5048971;28;21161;-84
2023/07/26 09:35:32;;;;;;;5.55;1.70;;;;;;;21.51;38.22;92136.06;5056569;28;20315;-81
2023/07/26 09:38:08;;;;;;;3.83;1.75;;;;;;;21.86;36.17;92132.25;5087080;28;20021;-81
2023/07/26 09:40:34;;;;;;;8.32;1.80;;;;;;;22.08;38.86;92138.59;5058091;28;20074;-81
2023/07/26 09:43:00;;;;;;;3.50;1.70;;;;;;;22.38;36.84;92141.16;5051395;28;20465;-81
2023/07/26 09:45:26;;;;;;;3.08;1.48;;;;;;;22.29;35.12;92149.50;5054034;28;20499;-81
2023/07/26 09:47:52;;;;;;;2.70;1.42;;;;;;;22.18;36.44;92146.69;5072323;28;20048;-81
2023/07/26 09:50:25;;;;;;;4.53;1.33;;;;;;;22.13;36.43;92148.91;5065903;28;20036;-80
2023/07/26 09:52:58;;;;;;;3.10;1.48;;;;;;;21.92;35.34;92152.13;5065934;28;20040;-80
2023/07/26 09:55:26;;;;;;;3.53;1.55;;;;;;;22.30;35.59;92160.91;5059409;28;20017;-80
2023/07/26 09:57:54;;;;;;;3.03;1.42;;;;;;;22.30;33.74;92156.34;5043661;28;20029;-80
2023/07/26 10:00:21;;;;;;;2.22;1.13;;;;;;;22.22;33.21;92163.53;5042109;28;20897;-82
2023/07/26 10:02:57;;;;;;;3.97;1.65;;;;;;;22.44;34.79;92153.78;5035178;28;20051;-80
2023/07/26 10:05:25;;;;;;;3.40;1.55;;;;;;;22.60;35.98;92161.53;5042330;28;20108;-82
2023/07/26 10:07:52;;;;;;;2.45;1.30;;;;;;;22.38;34.18;92149.16;5049792;28;20067;-81
2023/07/26 10:10:19;;;;;;;3.78;1.23;;;;;;;22.71;39.02;92156.31;5043881;28;20656;-82
2023/07/26 10:12:46;;;;;;;3.13;1.63;;;;;;;22.66;31.93;92165.41;5041249;28;20037;-82
2023/07/26 10:15:16;;;;;;;4.70;1.67;;;;;;;22.66;35.29;92159.31;5050374;28;20155;-82
2023/07/26 10:17:47;;;;;;;2.88;1.48;;;;;;;23.06;36.79;92155.06;5041597;28;20210;-80
2023/07/26 10:20:12;;;;;;;3.55;1.40;;;;;;;22.76;33.00;92161.28;5054979;28;20029;-87
2023/07/26 10:22:41;;;;;;;3.33;1.50;;;;;;;22.63;35.21;92144.81;5046041;28;20039;-85
2023/07/26 10:25:06;;;;;;;2.88;1.52;;;;;;;23.02;40.29;92141.69;5040677;28;20048;-87
2023/07/26 10:27:33;;;;;;;3.50;1.38;;;;;;;22.77;34.80;92154.06;5055084;28;20033;-86
2023/07/26 10:29:59;;;;;;;1.90;1.10;;;;;;;22.59;33.36;92149.34;5060218;28;20038;-86
2023/07/26 10:32:24;;;;;;;2.75;1.30;;;;;;;22.47;34.41;92146.94;5057509;28;20041;-86
2023/07/26 10:34:57;;;;;;;3.53;1.50;;;;;;;22.35;34.96;92155.25;5038160;28;20364;-86
2023/07/26 10:37:31;;;;;;;3.50;1.50;;;;;;;22.56;35.38;92158.09;5058543;28;20087;-86
2023/07/26 10:39:57;;;;;;;2.13;1.20;;;;;;;22.33;34.28;92154.84;5057463;28;20056;-86
2023/07/26 10:42:27;;;;;;;2.58;1.30;;;;;;;22.66;35.14;92159.31;5067495;28;20025;-86
2023/07/26 10:44:54;;;;;;;3.60;1.60;;;;;;;22.95;33.74;92162.22;5060711;28;20530;-85
2023/07/26 10:47:20;;;;;;;2.35;1.20;;;;;;;23.00;34.77;92161.88;5064752;28;20508;-86
2023/07/26 10:49:49;;;;;;;4.88;1.55;;;;;;;22.99;35.17;92155.78;5065665;28;20045;-85
2023/07/26 10:52:16;;;;;;;2.72;1.40;;;;;;;22.65;33.09;92157.78;5078009;28;20060;-86
2023/07/26 10:54:49;;;;;;;3.33;1.40;;;;;;;22.71;35.18;92147.53;5074587;28;20040;-85
2023/07/26 10:57:28;;;;;;;2.88;1.30;;;;;;;22.86;35.43;92149.19;5061751;28;20029;-86
2023/07/26 11:00:11;;;;;;;2.63;1.38;;;;;;;22.68;35.06;92157.06;5062881;28;20044;-85
2023/07/26 11:02:55;;;;;;;3.67;1.30;;;;;;;23.18;41.91;92151.31;5076203;28;20686;-86
2023/07/26 11:05:22;;;;;;;3.50;1.40;;;;;;;23.42;35.54;92148.03;5070586;28;20115;-85
2023/07/26 11:07:52;;;;;;;4.28;1.50;;;;;;;23.33;36.32;92146.81;5064537;28;20036;-86
2023/07/26 11:10:28;;;;;;;3.08;1.58;;;;;;;23.03;34.18;92147.78;5061949;28;20025;-86
2023/07/26 11:13:19;;;;;;;3.50;1.50;;;;;;;23.03;36.84;92151.25;5057550;28;20051;-85
2023/07/26 11:15:46;;;;;;;3.78;1.55;;;;;;;23.28;35.17;92150.59;5060924;28;20032;-85
2023/07/26 11:18:14;;;;;;;5.80;1.40;;;;;;;23.12;35.49;92142.13;5057945;28;20033;-86
2023/07/26 11:20:44;;;;;;;2.50;1.38;;;;;;;23.12;36.83;92142.13;5071805;28;20036;-85
2023/07/26 11:23:27;;;;;;;3.92;1.30;;;;;;;23.56;35.83;92149.22;5075555;28;20036;-86
2023/07/26 11:25:55;;;;;;;2.13;1.10;;;;;;;23.03;34.21;92148.56;5067819;28;20371;-85
2023/07/26 11:28:21;;;;;;;3.72;1.60;;;;;;;22.71;32.97;92150.22;5056403;28;20033;-85
2023/07/26 11:30:54;;;;;;;2.47;1.27;;;;;;;22.75;33.96;92145.66;5062189;28;20063;-86